Time;durP1;ratioP1;P1;durP2;ratioP2;P2;SDS_P1;SDS_P2;PMS_P1;PMS_P2;Temp;Humidity;BMP_temperature;BMP_pressure;BME280_temperature;BME280_humidity;BME280_pressure;Samples;Min_cycle;Max_cycle;Signal;HPM_P1;HPM_P2
2022/12/04 00:01:47;;;;;;;24.10;8.45;;;;;;;6.45;100.00;99486.25;5092560;28;20020;-83
2022/12/04 00:04:13;;;;;;;22.92;10.35;;;;;;;6.23;100.00;99478.00;5073983;28;20378;-82
2022/12/04 00:06:38;;;;;;;22.30;8.20;;;;;;;6.28;100.00;99475.72;5091593;28;20028;-82
2022/12/04 00:09:04;;;;;;;17.75;8.43;;;;;;;6.35;100.00;99475.09;5091835;28;20020;-81
2022/12/04 00:11:32;;;;;;;19.35;8.55;;;;;;;6.39;100.00;99482.47;5091418;28;20032;-82
2022/12/04 00:13:58;;;;;;;19.83;9.23;;;;;;;6.20;100.00;99478.31;5072942;28;20458;-81
2022/12/04 00:16:25;;;;;;;19.73;8.50;;;;;;;6.06;100.00;99464.03;5091439;28;20351;-81
2022/12/04 00:18:52;;;;;;;26.42;9.73;;;;;;;6.10;100.00;99470.59;5090238;28;21466;-81
2022/12/04 00:21:18;;;;;;;18.50;9.82;;;;;;;5.92;100.00;99464.59;5090034;28;20032;-80
2022/12/04 00:23:45;;;;;;;21.10;10.05;;;;;;;6.20;100.00;99467.06;5091732;28;20534;-80
2022/12/04 00:26:14;;;;;;;19.10;9.55;;;;;;;6.19;100.00;99475.84;5091823;28;20458;-80
2022/12/04 00:28:41;;;;;;;18.88;9.75;;;;;;;6.15;100.00;99464.91;5106099;28;20103;-80
2022/12/04 00:31:14;;;;;;;22.35;10.65;;;;;;;6.15;100.00;99464.91;5091659;28;20060;-81
2022/12/04 00:33:40;;;;;;;23.52;10.32;;;;;;;6.15;100.00;99464.91;5090781;28;20072;-82
2022/12/04 00:36:09;;;;;;;23.83;10.63;;;;;;;6.05;100.00;99459.78;5091680;28;20039;-82
2022/12/04 00:38:36;;;;;;;36.08;12.05;;;;;;;6.06;100.00;99466.66;5090000;28;20024;-81
2022/12/04 00:41:03;;;;;;;25.65;13.23;;;;;;;6.10;100.00;99472.38;5090980;28;20059;-81
2022/12/04 00:43:30;;;;;;;24.58;12.13;;;;;;;5.99;100.00;99463.84;5091338;28;20050;-80
2022/12/04 00:45:56;;;;;;;26.02;11.82;;;;;;;6.14;100.00;99464.09;5091085;28;20028;-81
2022/12/04 00:48:22;;;;;;;28.25;12.13;;;;;;;6.14;100.00;99466.72;5073047;28;20107;-81
2022/12/04 00:50:48;;;;;;;24.88;11.48;;;;;;;6.00;100.00;99468.06;5072580;28;20027;-82
2022/12/04 00:53:14;;;;;;;21.10;11.13;;;;;;;6.00;100.00;99457.66;5072977;28;20034;-80
2022/12/04 00:55:41;;;;;;;26.65;11.52;;;;;;;5.95;100.00;99456.47;5071929;28;20043;-80
2022/12/04 00:58:07;;;;;;;22.58;11.18;;;;;;;5.86;100.00;99453.78;5091049;28;20028;-80
2022/12/04 01:00:37;;;;;;;21.20;11.02;;;;;;;5.76;100.00;99460.09;5072754;28;20073;-81
2022/12/04 01:03:04;;;;;;;30.38;11.82;;;;;;;5.87;100.00;99457.22;5072210;28;20043;-81
2022/12/04 01:05:30;;;;;;;25.17;11.07;;;;;;;5.71;100.00;99457.97;5091813;28;20028;-81
2022/12/04 01:07:56;;;;;;;26.30;10.85;;;;;;;5.56;100.00;99458.50;5072588;28;20094;-81
2022/12/04 01:10:22;;;;;;;19.15;10.02;;;;;;;5.82;100.00;99455.09;5071719;28;20032;-81
2022/12/04 01:12:49;;;;;;;28.70;11.43;;;;;;;5.86;100.00;99453.78;5089395;28;20032;-81
2022/12/04 01:15:16;;;;;;;18.30;9.27;;;;;;;5.76;100.00;99454.88;5071756;28;20039;-82
2022/12/04 01:17:41;;;;;;;23.35;9.98;;;;;;;5.64;100.00;99456.91;5071823;28;20028;-81
2022/12/04 01:20:08;;;;;;;25.35;9.52;;;;;;;5.50;100.00;99451.31;5092162;28;20394;-81
2022/12/04 01:22:33;;;;;;;24.42;10.20;;;;;;;5.53;100.00;99445.78;5088686;28;20027;-81
2022/12/04 01:24:59;;;;;;;20.38;10.23;;;;;;;9.02;100.00;99444.16;5090588;28;20028;-80
2022/12/04 01:27:24;;;;;;;22.38;10.68;;;;;;;7.15;100.00;99486.94;5090916;28;20028;-81
2022/12/04 01:29:50;;;;;;;30.45;12.02;;;;;;;6.36;100.00;99440.22;5088999;28;20382;-82
2022/12/04 01:32:16;;;;;;;25.40;11.48;;;;;;;6.11;100.00;99448.78;5089152;28;20035;-80
2022/12/04 01:34:41;;;;;;;23.08;11.23;;;;;;;6.23;100.00;99441.50;5071738;28;20028;-81
2022/12/04 01:37:07;;;;;;;23.95;9.98;;;;;;;6.22;100.00;99444.25;5055070;28;20036;-80
2022/12/04 01:39:35;;;;;;;27.58;11.65;;;;;;;6.22;100.00;99436.44;5071544;28;20485;-80
2022/12/04 01:42:01;;;;;;;28.50;12.48;;;;;;;6.17;100.00;99423.06;5071665;28;20040;-80
2022/12/04 01:44:29;;;;;;;22.23;10.02;;;;;;;5.96;100.00;99434.66;5090333;28;20028;-79
2022/12/04 01:46:56;;;;;;;19.60;9.98;;;;;;;5.96;100.00;99434.66;5071490;28;20020;-80
2022/12/04 01:49:22;;;;;;;27.00;9.27;;;;;;;5.81;100.00;99435.22;5089776;28;20490;-80
2022/12/04 01:51:51;;;;;;;23.38;10.43;;;;;;;5.91;100.00;99439.50;5071689;28;20031;-80
2022/12/04 01:54:27;;;;;;;30.35;9.98;;;;;;;6.03;100.00;99446.09;5090748;28;20477;-81
2022/12/04 01:57:06;;;;;;;32.15;9.98;;;;;;;5.83;100.00;99437.69;5090230;28;20024;-81
2022/12/04 01:59:37;;;;;;;25.77;9.52;;;;;;;5.89;100.00;99436.22;5089707;28;20024;-81
2022/12/04 02:02:13;;;;;;;22.25;10.73;;;;;;;5.68;100.00;99429.59;5088683;28;20040;-80
2022/12/04 02:04:41;;;;;;;19.50;9.05;;;;;;;5.91;100.00;99435.09;5089635;28;20148;-80
2022/12/04 02:07:06;;;;;;;22.83;10.10;;;;;;;5.90;100.00;99430.06;5089872;28;20084;-80
2022/12/04 02:09:33;;;;;;;21.00;9.57;;;;;;;5.69;100.00;99431.22;5089071;28;20397;-80
2022/12/04 02:12:31;;;;;;;24.13;9.48;;;;;;;5.71;100.00;99426.69;5089953;28;20122;-80
2022/12/04 02:15:09;;;;;;;19.92;9.23;;;;;;;5.68;100.00;99442.59;5088903;28;20036;-80
2022/12/04 02:18:01;;;;;;;23.67;10.82;;;;;;;8.80;100.00;99474.53;5088919;28;20115;-80
2022/12/04 02:20:34;;;;;;;28.08;10.52;;;;;;;7.41;100.00;99470.28;5087261;28;20070;-80
2022/12/04 02:23:30;;;;;;;25.60;10.30;;;;;;;6.68;100.00;99465.63;5089218;28;20024;-80
2022/12/04 02:26:00;;;;;;;21.30;9.75;;;;;;;6.48;100.00;99459.00;5090057;28;20474;-80
2022/12/04 02:28:42;;;;;;;22.58;10.05;;;;;;;6.15;100.00;99449.25;5089695;28;20494;-80
2022/12/04 02:31:16;;;;;;;20.48;9.50;;;;;;;6.00;100.00;99430.75;5089302;28;20493;-80
2022/12/04 02:34:00;;;;;;;18.05;9.40;;;;;;;6.10;100.00;99426.28;5071961;28;20031;-81
2022/12/04 02:36:28;;;;;;;;;;;;;;;5.80;100.00;99425.75;5071102;28;20477;-79
2022/12/04 02:39:04;;;;;;;27.40;10.43;;;;;;;6.12;100.00;99432.16;5089262;28;19923;-79
2022/12/04 02:41:39;;;;;;;26.35;10.85;;;;;;;6.17;100.00;99425.66;5071797;28;20032;-80
2022/12/04 02:44:43;;;;;;;26.15;9.82;;;;;;;6.10;100.00;99431.50;5093491;28;20042;-80
2022/12/04 02:47:13;;;;;;;29.42;10.82;;;;;;;6.13;100.00;99431.19;5050265;28;20097;-79
2022/12/04 02:50:04;;;;;;;22.55;10.65;;;;;;;6.14;100.00;99432.81;5092983;28;21966;-80
2022/12/04 02:52:45;;;;;;;19.63;8.73;;;;;;;6.32;100.00;99426.72;5066788;28;20043;-80
2022/12/04 02:55:42;;;;;;;23.70;9.82;;;;;;;6.20;100.00;99430.56;5073978;28;20051;-80
2022/12/04 02:58:17;;;;;;;17.98;8.70;;;;;;;6.26;100.00;99424.72;5092478;28;20039;-79
2022/12/04 03:00:45;;;;;;;18.50;9.45;;;;;;;6.24;100.00;99426.66;5092303;28;20051;-79
2022/12/04 03:03:39;;;;;;;26.33;10.82;;;;;;;6.39;100.00;99416.47;5091559;28;20114;-79
2022/12/04 03:06:10;;;;;;;27.17;11.00;;;;;;;6.24;100.00;99413.63;5089869;28;20048;-81
2022/12/04 03:08:46;;;;;;;26.98;11.65;;;;;;;6.17;100.00;99410.03;5092559;28;20032;-80
2022/12/04 03:11:13;;;;;;;29.23;11.65;;;;;;;6.12;100.00;99419.13;5093737;28;20056;-80
2022/12/04 03:13:45;;;;;;;27.50;12.70;;;;;;;6.28;100.00;99414.94;5091250;28;20070;-79
2022/12/04 03:16:11;;;;;;;28.95;11.35;;;;;;;6.36;100.00;99417.59;5092929;28;20042;-80
2022/12/04 03:19:06;;;;;;;24.02;10.20;;;;;;;6.39;100.00;99417.28;5092603;28;20127;-80
2022/12/04 03:21:37;;;;;;;26.63;10.75;;;;;;;6.19;100.00;99411.50;5068516;28;20051;-79
2022/12/04 03:24:23;;;;;;;19.73;10.15;;;;;;;6.20;100.00;99414.91;5092557;28;20038;-79
2022/12/04 03:26:59;;;;;;;25.33;9.65;;;;;;;6.47;100.00;99411.28;5073767;28;20031;-80
2022/12/04 03:29:31;;;;;;;15.73;9.18;;;;;;;6.24;100.00;99411.00;5073968;28;20028;-79
2022/12/04 03:32:03;;;;;;;23.60;9.52;;;;;;;6.25;100.00;99397.00;5074535;28;20020;-81
2022/12/04 03:34:52;;;;;;;20.55;8.95;;;;;;;6.29;100.00;99404.38;5092469;28;20085;-80
2022/12/04 03:37:25;;;;;;;24.95;10.05;;;;;;;6.30;100.00;99399.97;5073233;28;20032;-80
2022/12/04 03:39:55;;;;;;;30.45;11.52;;;;;;;6.06;100.00;99392.88;5074529;28;20115;-79
2022/12/04 03:42:30;;;;;;;19.77;9.85;;;;;;;6.05;100.00;99401.66;5091830;28;20072;-79
2022/12/04 03:45:05;;;;;;;23.25;10.60;;;;;;;6.03;100.00;99394.00;5074096;28;20058;-80
2022/12/04 03:47:45;;;;;;;25.98;10.77;;;;;;;6.08;100.00;99391.72;5073826;28;20089;-80
2022/12/04 03:50:28;;;;;;;26.77;12.77;;;;;;;6.18;100.00;99385.59;5091895;28;20034;-80
2022/12/04 03:53:07;;;;;;;24.15;11.38;;;;;;;5.95;100.00;99409.56;5091354;28;20035;-79
2022/12/04 03:55:44;;;;;;;24.05;12.18;;;;;;;5.93;100.00;99398.50;5092262;28;20047;-79
2022/12/04 03:58:18;;;;;;;26.05;12.02;;;;;;;5.77;100.00;99394.00;5091773;28;20102;-80
2022/12/04 04:00:50;;;;;;;29.95;12.30;;;;;;;6.09;100.00;99382.97;5072826;28;20482;-80
2022/12/04 04:03:21;;;;;;;35.67;14.05;;;;;;;6.02;100.00;99387.16;5092028;28;20053;-79
2022/12/04 04:05:53;;;;;;;23.40;10.38;;;;;;;5.98;100.00;99391.00;5091684;28;20074;-80
2022/12/04 04:08:26;;;;;;;24.13;10.30;;;;;;;6.20;100.00;99383.63;5073897;28;20035;-80
2022/12/04 04:11:04;;;;;;;;;;;;;;;6.29;100.00;99393.94;5074539;28;20034;-80
2022/12/04 04:25:06;;;;;;;22.10;8.98;;;;;;;6.00;100.00;99382.06;5090891;28;20031;-79
2022/12/04 04:27:31;;;;;;;22.42;9.65;;;;;;;6.22;100.00;99384.28;5090402;28;20038;-80
2022/12/04 04:29:57;;;;;;;19.98;9.07;;;;;;;6.06;100.00;99377.22;5091815;28;20020;-80
2022/12/04 04:32:44;;;;;;;24.17;9.52;;;;;;;5.98;100.00;99380.59;5088769;28;20032;-80
2022/12/04 04:35:25;;;;;;;24.95;10.57;;;;;;;6.20;100.00;99381.03;5091237;28;20459;-79
2022/12/04 04:38:04;;;;;;;19.60;8.70;;;;;;;6.19;100.00;99379.41;5090813;28;20161;-79
2022/12/04 04:41:03;;;;;;;21.73;9.18;;;;;;;6.18;100.00;99369.94;5090208;28;20028;-79
2022/12/04 04:43:41;;;;;;;15.18;7.85;;;;;;;5.91;100.00;99369.16;5090571;28;20059;-79
2022/12/04 04:46:13;;;;;;;16.83;8.35;;;;;;;5.83;100.00;99375.94;5091079;28;20395;-80
2022/12/04 04:48:51;;;;;;;17.85;8.48;;;;;;;6.23;100.00;99376.31;5071669;28;20035;-79
2022/12/04 04:51:18;;;;;;;19.45;8.48;;;;;;;6.14;100.00;99385.91;5072399;28;20497;-80
2022/12/04 04:53:51;;;;;;;22.00;8.43;;;;;;;6.24;100.00;99369.31;5090971;28;20477;-80
2022/12/04 04:56:18;;;;;;;20.05;8.20;;;;;;;6.29;100.00;99375.69;5090610;28;20048;-80
2022/12/04 04:58:44;;;;;;;18.90;9.13;;;;;;;6.25;100.00;99373.53;5072061;28;20070;-79
2022/12/04 05:01:13;;;;;;;23.02;8.40;;;;;;;6.42;100.00;99372.63;5072273;28;20489;-80
2022/12/04 05:03:40;;;;;;;18.08;8.02;;;;;;;6.39;100.00;99372.94;5090414;28;20077;-81
2022/12/04 05:06:05;;;;;;;21.08;8.80;;;;;;;6.27;100.00;99369.81;5055852;28;20032;-81
2022/12/04 05:08:32;;;;;;;16.80;8.23;;;;;;;6.41;100.00;99376.22;5074129;28;20043;-79
2022/12/04 05:10:58;;;;;;;19.33;9.43;;;;;;;6.25;100.00;99382.19;5091201;28;20036;-80
2022/12/04 05:13:23;;;;;;;16.35;8.27;;;;;;;6.32;100.00;99371.97;5089369;28;20024;-80
2022/12/04 05:16:07;;;;;;;15.77;8.23;;;;;;;6.56;100.00;99379.00;5072321;28;20032;-80
2022/12/04 05:18:34;;;;;;;18.73;8.48;;;;;;;6.63;100.00;99379.19;5071919;28;20488;-80
2022/12/04 05:21:05;;;;;;;18.50;8.65;;;;;;;6.54;100.00;99378.34;5089655;28;20066;-80
2022/12/04 05:23:30;;;;;;;18.10;9.32;;;;;;;6.46;100.00;99372.31;5089286;28;20035;-79
2022/12/04 05:26:01;;;;;;;20.90;8.95;;;;;;;6.36;100.00;99372.44;5070345;28;20086;-80
2022/12/04 05:28:26;;;;;;;22.15;10.32;;;;;;;6.51;100.00;99370.06;5070948;28;20067;-80
2022/12/04 05:30:58;;;;;;;19.58;9.82;;;;;;;6.58;100.00;99368.44;5071115;28;20020;-81
2022/12/04 05:33:24;;;;;;;29.23;11.38;;;;;;;6.43;100.00;99370.84;5071207;28;20035;-80
2022/12/04 05:36:05;;;;;;;24.00;12.10;;;;;;;6.61;100.00;99365.50;5089533;28;20032;-79
2022/12/04 05:38:31;;;;;;;22.65;11.50;;;;;;;6.67;100.00;99374.47;5088298;28;20031;-80
2022/12/04 05:40:58;;;;;;;28.92;12.90;;;;;;;6.51;100.00;99367.44;5089371;28;20454;-79
2022/12/04 05:43:23;;;;;;;25.60;12.65;;;;;;;6.41;100.00;99371.00;5089125;28;20048;-80
2022/12/04 05:45:49;;;;;;;24.02;12.18;;;;;;;6.55;100.00;99371.34;5090761;28;20449;-79
2022/12/04 05:48:14;;;;;;;28.65;12.52;;;;;;;6.52;100.00;99364.66;5071181;28;20024;-79
2022/12/04 05:50:40;;;;;;;25.30;12.25;;;;;;;6.56;100.00;99365.16;5089913;28;20104;-81
2022/12/04 05:53:06;;;;;;;26.08;12.85;;;;;;;6.60;100.00;99369.06;5089754;28;20044;-81
2022/12/04 05:55:31;;;;;;;74.82;17.23;;;;;;;6.47;100.00;99371.31;5090198;28;20390;-82
2022/12/04 05:57:58;;;;;;;38.70;14.25;;;;;;;6.57;100.00;99369.41;5089800;28;20032;-80
2022/12/04 06:00:23;;;;;;;31.25;15.68;;;;;;;6.67;100.00;99364.84;5072196;28;20595;-81
2022/12/04 06:02:49;;;;;;;45.05;16.08;;;;;;;6.69;100.00;99373.34;5072191;28;20059;-81
2022/12/04 06:05:15;;;;;;;49.53;16.80;;;;;;;6.69;100.00;99372.53;5089960;28;20107;-80
2022/12/04 06:07:41;;;;;;;62.80;17.25;;;;;;;6.64;100.00;99373.00;5089399;28;20565;-80
2022/12/04 06:10:06;;;;;;;117.53;21.10;;;;;;;6.67;100.00;99364.84;5089391;28;20114;-81
2022/12/04 06:12:32;;;;;;;78.90;18.70;;;;;;;6.79;100.00;99372.38;5069866;28;20028;-81
2022/12/04 06:14:57;;;;;;;124.75;22.42;;;;;;;6.80;100.00;99367.00;5071555;28;20397;-80
2022/12/04 06:17:23;;;;;;;77.38;18.73;;;;;;;6.87;100.00;99374.97;5088803;28;20028;-81
2022/12/04 06:19:49;;;;;;;318.45;36.60;;;;;;;6.91;100.00;99370.25;5089972;28;20393;-81
2022/12/04 06:22:14;;;;;;;40.17;15.07;;;;;;;6.74;100.00;99377.25;5089317;28;20493;-82
2022/12/04 06:24:40;;;;;;;241.50;29.88;;;;;;;6.69;100.00;99380.34;5088091;28;20101;-82
2022/12/04 06:27:06;;;;;;;37.28;17.13;;;;;;;6.80;100.00;99374.00;5090059;28;20105;-81
2022/12/04 06:29:31;;;;;;;161.23;21.30;;;;;;;6.80;100.00;99380.03;5089443;28;20405;-81
2022/12/04 06:31:57;;;;;;;30.25;15.35;;;;;;;6.86;100.00;99375.94;5071366;28;20028;-82
2022/12/04 06:34:22;;;;;;;101.50;20.05;;;;;;;6.74;100.00;99372.03;5089695;28;20052;-81
2022/12/04 06:36:48;;;;;;;46.42;17.20;;;;;;;6.85;100.00;99376.94;5071349;28;20484;-81
2022/12/04 06:39:14;;;;;;;42.58;14.45;;;;;;;6.93;100.00;99379.56;5071592;28;20036;-82
2022/12/04 06:41:39;;;;;;;45.90;15.93;;;;;;;6.77;100.00;99379.53;5087790;28;20121;-81
2022/12/04 06:44:05;;;;;;;73.85;16.48;;;;;;;6.90;100.00;99379.06;5076640;28;20032;-81
2022/12/04 06:46:32;;;;;;;40.65;14.80;;;;;;;6.85;100.00;99377.75;5076644;28;20477;-81
2022/12/04 06:48:59;;;;;;;31.23;14.63;;;;;;;7.05;100.00;99366.16;5077945;28;20470;-82
2022/12/04 06:51:31;;;;;;;29.40;13.48;;;;;;;7.12;100.00;99380.22;5079507;28;20028;-81
2022/12/04 06:53:57;;;;;;;30.55;14.65;;;;;;;6.96;100.00;99374.00;5078205;28;20097;-81
2022/12/04 06:56:26;;;;;;;38.50;15.68;;;;;;;7.07;100.00;99369.44;5059803;28;20036;-81
2022/12/04 06:58:57;;;;;;;27.00;13.27;;;;;;;7.13;100.00;99371.41;5079843;28;20024;-81
2022/12/04 07:01:26;;;;;;;53.10;14.63;;;;;;;7.05;100.00;99377.44;5079047;28;20028;-81
2022/12/04 07:03:52;;;;;;;47.63;16.45;;;;;;;7.05;100.00;99382.66;5066032;28;20029;-80
2022/12/04 07:06:22;;;;;;;195.88;26.20;;;;;;;7.12;100.00;99382.84;5053897;28;20605;-80
2022/12/04 07:08:52;;;;;;;70.15;16.60;;;;;;;7.05;100.00;99381.84;5074914;28;21533;-80
2022/12/04 07:11:20;;;;;;;202.13;27.05;;;;;;;7.15;100.00;99379.91;5056987;28;20094;-81
2022/12/04 07:13:46;;;;;;;33.35;14.23;;;;;;;7.08;100.00;99373.69;5074694;28;20028;-80
2022/12/04 07:16:14;;;;;;;33.83;14.95;;;;;;;7.23;100.00;99385.09;5060439;28;20028;-81
2022/12/04 07:18:40;;;;;;;31.08;13.55;;;;;;;7.22;100.00;99382.66;5059248;28;20024;-83
2022/12/04 07:21:07;;;;;;;26.10;12.10;;;;;;;7.23;100.00;99384.31;5082162;28;20066;-83
2022/12/04 07:23:33;;;;;;;27.10;13.23;;;;;;;7.20;100.00;99390.66;5043263;28;20032;-83
2022/12/04 07:26:06;;;;;;;29.05;12.02;;;;;;;7.21;100.00;99387.06;5079246;28;20067;-82
2022/12/04 07:28:31;;;;;;;30.38;14.48;;;;;;;7.33;100.00;99391.97;5076022;28;20470;-82
2022/12/04 07:30:57;;;;;;;23.65;11.02;;;;;;;7.27;100.00;99380.38;5087253;28;20087;-81
2022/12/04 07:33:23;;;;;;;23.67;11.68;;;;;;;7.18;100.00;99387.38;5062863;28;20074;-80
2022/12/04 07:35:56;;;;;;;30.00;13.32;;;;;;;7.13;100.00;99381.84;5065251;28;20024;-83
2022/12/04 07:38:21;;;;;;;33.67;13.75;;;;;;;6.96;100.00;99384.47;5074710;28;20028;-81
2022/12/04 07:40:47;;;;;;;57.40;17.10;;;;;;;7.04;100.00;99385.44;5081754;28;20043;-83
2022/12/04 07:43:14;;;;;;;76.55;18.30;;;;;;;7.12;100.00;99388.06;5089953;28;20520;-82
2022/12/04 07:45:39;;;;;;;142.18;19.75;;;;;;;7.04;100.00;99385.44;5091792;28;20032;-81
2022/12/04 07:48:05;;;;;;;89.85;17.60;;;;;;;6.88;100.00;99386.25;5092581;28;20024;-81
2022/12/04 07:50:30;;;;;;;120.75;19.10;;;;;;;6.90;100.00;99389.50;5091608;28;20031;-86
2022/12/04 07:52:56;;;;;;;35.17;16.90;;;;;;;7.02;100.00;99387.38;5071875;28;20028;-85
2022/12/04 07:55:22;;;;;;;217.75;28.63;;;;;;;6.98;100.00;99392.94;5091778;28;20398;-86
2022/12/04 07:57:47;;;;;;;41.72;17.05;;;;;;;7.10;100.00;99400.47;5092989;28;20032;-85
2022/12/04 08:00:13;;;;;;;51.38;15.85;;;;;;;6.97;100.00;99390.47;5094114;28;20040;-85
2022/12/04 08:02:39;;;;;;;40.70;16.15;;;;;;;7.13;100.00;99398.31;5090286;28;20115;-86
2022/12/04 08:05:05;;;;;;;35.55;14.82;;;;;;;7.08;100.00;99391.97;5083203;28;20120;-86
2022/12/04 08:07:31;;;;;;;34.15;15.70;;;;;;;7.07;100.00;99390.31;5065514;28;20060;-86
2022/12/04 08:09:56;;;;;;;40.92;14.93;;;;;;;7.00;100.00;99395.41;5057196;28;20505;-86
2022/12/04 08:12:22;;;;;;;38.60;16.55;;;;;;;6.96;100.00;99392.28;5087066;28;20028;-85
2022/12/04 08:14:48;;;;;;;35.35;15.45;;;;;;;7.07;100.00;99390.31;5063040;28;20390;-86
2022/12/04 08:17:14;;;;;;;40.20;17.10;;;;;;;7.03;100.00;99381.19;5087152;28;20028;-87
2022/12/04 08:19:39;;;;;;;43.20;18.05;;;;;;;7.10;100.00;99380.38;5093237;28;20432;-86
2022/12/04 08:22:05;;;;;;;55.78;18.23;;;;;;;7.22;100.00;99375.63;5092620;28;20034;-85
2022/12/04 08:24:31;;;;;;;44.53;17.88;;;;;;;7.34;100.00;99390.97;5073529;28;20466;-84
2022/12/04 08:26:56;;;;;;;40.55;17.13;;;;;;;7.15;100.00;99388.53;5091419;28;20073;-85
2022/12/04 08:29:22;;;;;;;36.22;17.08;;;;;;;7.20;100.00;99390.66;5092389;28;20024;-84
2022/12/04 08:31:47;;;;;;;43.28;18.08;;;;;;;7.17;100.00;99396.19;5090841;28;20105;-83
2022/12/04 08:34:14;;;;;;;47.53;17.88;;;;;;;7.22;100.00;99399.13;5090051;28;20412;-84
2022/12/04 08:36:40;;;;;;;43.83;18.05;;;;;;;7.23;100.00;99392.94;5088745;28;20496;-85
2022/12/04 08:39:05;;;;;;;40.03;14.95;;;;;;;6.94;100.00;99393.41;5088930;28;20043;-84
2022/12/04 08:41:31;;;;;;;38.15;15.77;;;;;;;6.88;100.00;99401.91;5057251;28;20103;-86
2022/12/04 08:43:57;;;;;;;40.80;16.92;;;;;;;6.95;100.00;99400.25;5093185;28;20477;-85
2022/12/04 08:46:25;;;;;;;34.58;15.75;;;;;;;7.03;100.00;99409.91;5060341;28;20045;-86
2022/12/04 08:48:51;;;;;;;42.90;15.82;;;;;;;7.13;100.00;99405.34;5074194;28;20028;-83
2022/12/04 08:51:22;;;;;;;36.58;15.50;;;;;;;7.08;100.00;99402.41;5072157;28;20044;-87
2022/12/04 08:53:52;;;;;;;39.38;15.05;;;;;;;7.15;100.00;99398.97;5084845;28;20462;-83
2022/12/04 08:56:18;;;;;;;40.22;14.38;;;;;;;7.08;100.00;99398.00;5065480;28;20064;-84
2022/12/04 08:58:43;;;;;;;35.08;14.88;;;;;;;7.11;100.00;99399.47;5087521;28;20532;-84
2022/12/04 09:01:11;;;;;;;38.28;16.83;;;;;;;7.31;100.00;99415.63;5082102;28;20035;-83
2022/12/04 09:03:38;;;;;;;40.35;16.38;;;;;;;7.39;100.00;99409.56;5070203;28;20077;-81
2022/12/04 09:06:05;;;;;;;36.42;15.95;;;;;;;7.35;100.00;99409.06;5073940;28;20119;-82
2022/12/04 09:08:32;;;;;;;36.65;16.25;;;;;;;7.21;100.00;99413.16;5049824;28;20042;-82
2022/12/04 09:11:07;;;;;;;35.80;15.48;;;;;;;7.13;100.00;99407.97;5072844;28;20485;-86
2022/12/04 09:13:34;;;;;;;36.92;15.85;;;;;;;7.18;100.00;99417.91;5075173;28;20058;-83
2022/12/04 09:16:03;;;;;;;30.10;14.27;;;;;;;7.22;100.00;99414.00;5077882;28;20032;-87
2022/12/04 09:18:29;;;;;;;29.52;14.95;;;;;;;7.23;100.00;99410.41;5093424;28;20028;-85
2022/12/04 09:21:01;;;;;;;35.60;15.43;;;;;;;7.32;100.00;99411.22;5090725;28;20050;-81
2022/12/04 09:23:28;;;;;;;34.97;14.70;;;;;;;7.34;100.00;99423.13;5089509;28;20097;-82
2022/12/04 09:25:53;;;;;;;36.75;15.88;;;;;;;7.43;100.00;99431.75;5092211;28;20031;-81
2022/12/04 09:28:20;;;;;;;33.60;14.48;;;;;;;7.31;100.00;99428.66;5073967;28;20035;-81
2022/12/04 09:31:02;;;;;;;32.97;15.63;;;;;;;7.40;100.00;99439.94;5072800;28;20028;-83
2022/12/04 09:33:37;;;;;;;30.42;13.52;;;;;;;7.40;100.00;99434.72;5074043;28;20028;-84
2022/12/04 09:36:03;;;;;;;31.02;13.20;;;;;;;7.34;100.00;99432.75;5051888;28;20032;-83
2022/12/04 09:38:29;;;;;;;37.85;12.98;;;;;;;7.50;100.00;99447.59;5049089;28;20043;-83
2022/12/04 09:41:16;;;;;;;31.75;13.93;;;;;;;7.71;100.00;99450.53;5067314;28;20092;-82
2022/12/04 09:44:09;;;;;;;28.15;13.30;;;;;;;7.58;100.00;99445.81;5073792;28;20071;-88
2022/12/04 09:46:49;;;;;;;27.77;13.90;;;;;;;7.47;100.00;99443.53;5052388;28;20036;-83
2022/12/04 09:49:25;;;;;;;34.13;15.40;;;;;;;7.56;100.00;99439.94;5058852;28;20123;-87
2022/12/04 09:52:55;;;;;;;31.90;16.10;;;;;;;7.66;100.00;99425.84;5074461;28;20085;-87
2022/12/04 09:55:41;;;;;;;28.23;12.23;;;;;;;7.82;100.00;99441.50;5084804;28;20114;-82
2022/12/04 09:58:16;;;;;;;31.60;14.60;;;;;;;7.81;100.00;99452.94;5074013;28;20053;-83
2022/12/04 10:00:44;;;;;;;31.10;13.55;;;;;;;7.53;100.00;99448.09;5045274;28;20115;-86
2022/12/04 10:03:17;;;;;;;29.65;14.50;;;;;;;7.49;100.00;99425.91;5075865;28;20031;-83
2022/12/04 10:06:00;;;;;;;32.05;13.50;;;;;;;7.70;100.00;99458.53;5056309;28;20035;-84
2022/12/04 10:08:27;;;;;;;38.40;15.65;;;;;;;7.61;100.00;99459.50;5072036;28;20030;-83
2022/12/04 10:10:52;;;;;;;36.08;16.20;;;;;;;7.55;100.00;99460.97;5073342;28;20042;-82
2022/12/04 10:13:43;;;;;;;37.40;17.17;;;;;;;7.83;100.00;99452.81;5090984;28;20028;-85
2022/12/04 10:16:32;;;;;;;42.03;18.33;;;;;;;8.05;100.00;99458.31;5088207;28;20039;-85
2022/12/04 10:19:11;;;;;;;47.90;19.70;;;;;;;7.81;100.00;99455.56;5058146;28;20489;-86
2022/12/04 10:22:08;;;;;;;37.55;17.75;;;;;;;7.84;100.00;99470.09;5089762;28;20040;-84
2022/12/04 10:24:48;;;;;;;38.97;17.92;;;;;;;7.69;100.00;99462.94;5061564;28;20489;-83
2022/12/04 10:27:29;;;;;;;31.27;13.88;;;;;;;7.68;100.00;99465.72;5074060;28;20464;-83
2022/12/04 10:29:58;;;;;;;31.10;13.93;;;;;;;7.65;100.00;99471.25;5091626;28;20073;-84
2022/12/04 10:32:30;;;;;;;31.52;14.32;;;;;;;7.63;100.00;99468.00;5072188;28;20028;-83
2022/12/04 10:35:07;;;;;;;30.10;14.82;;;;;;;7.66;100.00;99457.22;5071904;28;20028;-83
2022/12/04 10:37:39;;;;;;;37.75;18.85;;;;;;;7.50;100.00;99463.28;5072124;28;20020;-84
2022/12/04 10:40:31;;;;;;;43.35;16.42;;;;;;;7.19;100.00;99456.91;5099833;28;20028;-84
2022/12/04 10:43:03;;;;;;;35.28;15.75;;;;;;;7.17;100.00;99464.09;5076156;28;20047;-84
2022/12/04 10:45:28;;;;;;;38.70;17.35;;;;;;;7.34;100.00;99459.69;5089722;28;20064;-84
2022/12/04 10:47:54;;;;;;;33.72;14.82;;;;;;;7.41;100.00;99462.47;5070544;28;20421;-83
2022/12/04 10:50:23;;;;;;;27.35;14.43;;;;;;;7.61;100.00;99455.13;5090379;28;20079;-83
2022/12/04 10:52:49;;;;;;;34.53;14.65;;;;;;;7.61;100.00;99454.28;5089770;28;20028;-83
2022/12/04 10:55:26;;;;;;;29.30;13.55;;;;;;;7.67;100.00;99453.66;5089481;28;20035;-84
2022/12/04 10:57:51;;;;;;;26.35;13.25;;;;;;;7.56;100.00;99453.00;5072156;28;20073;-83
2022/12/04 11:00:34;;;;;;;29.33;13.73;;;;;;;7.76;100.00;99452.63;5071515;28;20405;-84
2022/12/04 11:03:18;;;;;;;29.63;14.07;;;;;;;7.57;100.00;99467.69;5092384;28;20067;-83
2022/12/04 11:05:54;;;;;;;32.35;14.55;;;;;;;7.67;100.00;99456.25;5092623;28;20504;-83
2022/12/04 11:08:25;;;;;;;29.20;13.57;;;;;;;7.67;100.00;99461.50;5092856;28;20039;-83
2022/12/04 11:11:02;;;;;;;30.65;13.32;;;;;;;7.55;100.00;99460.97;5091370;28;20355;-83
2022/12/04 11:13:28;;;;;;;29.23;14.35;;;;;;;7.62;100.00;99461.16;5092965;28;20032;-84
2022/12/04 11:15:56;;;;;;;29.10;13.70;;;;;;;7.56;100.00;99466.06;5093494;28;20028;-83
2022/12/04 11:18:24;;;;;;;34.50;14.52;;;;;;;7.62;100.00;99466.38;5075677;28;20466;-82
2022/12/04 11:20:55;;;;;;;34.15;14.77;;;;;;;7.58;100.00;99458.88;5075387;28;20020;-83
2022/12/04 11:23:21;;;;;;;33.13;15.77;;;;;;;7.45;100.00;99461.16;5093641;28;20478;-83
2022/12/04 11:25:51;;;;;;;32.40;16.02;;;;;;;7.61;100.00;99460.34;5094075;28;20063;-83
2022/12/04 11:28:21;;;;;;;36.47;16.90;;;;;;;7.65;100.00;99455.59;5092493;28;20432;-83
2022/12/04 11:30:55;;;;;;;34.33;16.40;;;;;;;7.69;100.00;99454.28;5093092;28;20081;-83
2022/12/04 11:33:43;;;;;;;30.33;14.25;;;;;;;7.91;100.00;99457.19;5108979;28;20020;-83
2022/12/04 11:36:30;;;;;;;33.95;14.77;;;;;;;7.84;100.00;99450.00;5058408;28;20038;-83
2022/12/04 11:39:11;;;;;;;30.65;14.48;;;;;;;7.86;100.00;99442.84;5074134;28;20028;-82
2022/12/04 11:41:38;;;;;;;28.27;14.10;;;;;;;7.86;100.00;99437.63;5073628;28;20087;-82
2022/12/04 11:44:05;;;;;;;27.15;13.80;;;;;;;7.92;100.00;99443.94;5093167;28;20028;-83
2022/12/04 11:46:33;;;;;;;24.65;13.45;;;;;;;8.13;100.00;99439.97;5093448;28;20036;-83
2022/12/04 11:48:59;;;;;;;25.23;12.25;;;;;;;8.20;100.00;99437.50;5091590;28;20414;-83